Time;durP1;ratioP1;P1;durP2;ratioP2;P2;SDS_P1;SDS_P2;PMS_P1;PMS_P2;Temp;Humidity;BMP_temperature;BMP_pressure;BME280_temperature;BME280_humidity;BME280_pressure;Samples;Min_cycle;Max_cycle;Signal;HPM_P1;HPM_P2
2023/09/15 00:00:43;;;;;;;5.13;2.10;;;13.30;99.90;;;;;;6074100;23;20458;-71
2023/09/15 00:03:09;;;;;;;8.70;3.70;;;13.30;99.90;;;;;;6071735;23;20397;-71
2023/09/15 00:05:35;;;;;;;5.17;2.87;;;13.30;99.90;;;;;;6072510;23;20365;-72
2023/09/15 00:08:04;;;;;;;5.80;2.50;;;13.20;99.90;;;;;;6046213;23;20130;-71
2023/09/15 00:10:39;;;;;;;4.87;2.90;;;13.20;99.90;;;;;;6071169;23;20369;-71
2023/09/15 00:13:04;;;;;;;5.33;2.27;;;13.20;99.90;;;;;;6071712;23;20456;-71
2023/09/15 00:15:30;;;;;;;4.73;2.90;;;13.20;99.90;;;;;;6072242;23;20373;-71
2023/09/15 00:17:56;;;;;;;3.60;2.60;;;13.20;99.90;;;;;;6071872;23;20138;-71
2023/09/15 00:20:24;;;;;;;3.17;2.60;;;13.10;99.90;;;;;;6072029;23;20133;-71
2023/09/15 00:22:52;;;;;;;3.50;2.10;;;13.10;99.90;;;;;;6072100;23;20361;-71
2023/09/15 00:25:19;;;;;;;4.93;2.57;;;13.10;99.90;;;;;;6071787;23;20369;-71
2023/09/15 00:27:57;;;;;;;4.50;2.30;;;13.10;99.90;;;;;;6071542;23;20397;-70
2023/09/15 00:30:24;;;;;;;4.93;2.33;;;13.00;99.90;;;;;;6071774;23;20605;-71
2023/09/15 00:32:50;;;;;;;5.07;3.00;;;13.00;99.90;;;;;;6071672;23;20850;-71
2023/09/15 00:35:17;;;;;;;6.30;3.40;;;13.10;99.90;;;;;;6046901;23;20374;-70
2023/09/15 00:37:45;;;;;;;4.60;2.33;;;13.00;99.90;;;;;;6046882;23;20601;-71
2023/09/15 00:40:12;;;;;;;5.43;2.80;;;13.00;99.90;;;;;;6046101;23;20700;-71
2023/09/15 00:42:37;;;;;;;5.80;3.00;;;13.00;99.90;;;;;;6040375;23;20406;-70
2023/09/15 00:45:05;;;;;;;7.87;3.30;;;13.00;99.90;;;;;;6059363;23;20380;-70
2023/09/15 00:47:34;;;;;;;5.73;2.67;;;12.90;99.90;;;;;;6071390;23;20146;-71
2023/09/15 00:50:05;;;;;;;4.20;2.47;;;12.90;99.90;;;;;;6071207;23;20435;-71
2023/09/15 00:52:33;;;;;;;5.17;2.83;;;12.90;99.90;;;;;;6070750;23;20405;-71
2023/09/15 00:54:59;;;;;;;6.73;2.80;;;12.90;99.90;;;;;;6046469;23;20488;-72
2023/09/15 00:57:25;;;;;;;3.97;2.97;;;12.80;99.90;;;;;;6045847;23;20401;-70
2023/09/15 00:59:52;;;;;;;3.90;2.27;;;12.80;99.90;;;;;;6071437;23;20430;-71
2023/09/15 01:02:17;;;;;;;3.17;2.77;;;12.80;99.90;;;;;;6046168;23;20382;-69
2023/09/15 01:04:43;;;;;;;6.97;2.40;;;12.80;99.90;;;;;;6046100;23;20415;-70
2023/09/15 01:07:10;;;;;;;5.13;2.60;;;12.70;99.90;;;;;;6071371;23;20140;-70
2023/09/15 01:09:36;;;;;;;5.70;2.70;;;12.70;99.90;;;;;;6071768;23;20803;-70
2023/09/15 01:12:04;;;;;;;4.13;3.03;;;12.70;99.90;;;;;;6072350;23;20419;-70
2023/09/15 01:14:30;;;;;;;6.10;2.70;;;12.70;99.90;;;;;;6045672;23;20174;-70
2023/09/15 01:17:02;;;;;;;3.90;2.73;;;12.70;99.90;;;;;;6071540;23;20684;-70
2023/09/15 01:20:08;;;;;;;6.73;2.17;;;12.70;99.90;;;;;;6071133;23;20424;-70
2023/09/15 01:22:58;;;;;;;6.90;2.80;;;12.70;99.90;;;;;;6045902;23;20382;-70
2023/09/15 01:25:33;;;;;;;3.37;2.40;;;12.70;99.90;;;;;;6045647;23;20384;-71
2023/09/15 01:28:34;;;;;;;4.83;2.63;;;12.60;99.90;;;;;;6079440;23;20814;-72
2023/09/15 01:31:00;;;;;;;4.20;2.73;;;12.60;99.90;;;;;;6046989;23;20727;-70
2023/09/15 01:33:30;;;;;;;2.93;2.37;;;12.60;99.90;;;;;;6047731;23;20651;-71
2023/09/15 01:35:57;;;;;;;5.13;3.13;;;12.50;99.90;;;;;;6056339;23;20441;-73
2023/09/15 01:38:23;;;;;;;5.97;2.87;;;12.50;99.90;;;;;;6055658;23;20386;-71
2023/09/15 01:40:50;;;;;;;3.83;2.80;;;12.50;99.90;;;;;;6084059;23;20370;-74
2023/09/15 01:43:16;;;;;;;3.77;2.67;;;12.40;99.90;;;;;;6028587;23;20531;-70
2023/09/15 01:45:43;;;;;;;5.87;2.60;;;12.40;99.90;;;;;;6070984;23;20807;-71
2023/09/15 01:48:10;;;;;;;4.37;2.10;;;12.40;99.90;;;;;;6074140;23;20373;-70
2023/09/15 01:50:37;;;;;;;3.33;2.53;;;12.40;99.90;;;;;;6082019;23;20139;-70
2023/09/15 01:53:04;;;;;;;5.20;2.20;;;12.40;99.90;;;;;;6045818;23;20387;-70
2023/09/15 01:55:32;;;;;;;2.90;2.07;;;12.30;99.90;;;;;;6049499;23;20466;-71
2023/09/15 01:57:57;;;;;;;5.50;2.47;;;12.30;99.90;;;;;;6074079;23;20389;-70
2023/09/15 02:00:23;;;;;;;5.20;2.63;;;12.20;99.90;;;;;;6045809;23;20720;-69
2023/09/15 02:02:48;;;;;;;4.40;2.40;;;12.20;99.90;;;;;;6072167;23;20172;-71
2023/09/15 02:05:23;;;;;;;3.43;2.20;;;12.20;99.90;;;;;;6045941;23;20167;-71
2023/09/15 02:07:49;;;;;;;5.00;2.20;;;12.20;99.90;;;;;;6022622;23;20153;-70
2023/09/15 02:10:14;;;;;;;2.43;1.93;;;12.10;99.90;;;;;;6070765;23;20398;-70
2023/09/15 02:12:40;;;;;;;4.17;2.30;;;12.10;99.90;;;;;;6044828;23;20549;-70
2023/09/15 02:15:06;;;;;;;4.63;2.00;;;12.10;99.90;;;;;;6070772;23;20142;-70
2023/09/15 02:17:33;;;;;;;4.23;2.10;;;12.10;99.90;;;;;;6070246;23;20211;-69
2023/09/15 02:19:58;;;;;;;2.90;2.40;;;12.10;99.90;;;;;;6071455;23;20365;-71
2023/09/15 02:22:26;;;;;;;3.33;2.30;;;12.10;99.90;;;;;;6071230;23;20137;-70
2023/09/15 02:24:52;;;;;;;3.33;2.17;;;12.00;99.90;;;;;;6072418;23;20167;-70
2023/09/15 02:27:17;;;;;;;4.77;2.97;;;12.00;99.90;;;;;;6022710;23;20850;-70
2023/09/15 02:29:43;;;;;;;6.30;2.40;;;12.00;99.90;;;;;;6071958;23;20143;-70
2023/09/15 02:32:08;;;;;;;4.73;3.30;;;12.00;99.90;;;;;;6045893;23;20187;-70
2023/09/15 02:34:34;;;;;;;5.83;2.83;;;12.00;99.90;;;;;;6051174;23;20169;-70
2023/09/15 02:36:59;;;;;;;5.77;2.90;;;12.00;99.90;;;;;;6076290;23;20147;-70
2023/09/15 02:39:25;;;;;;;3.87;2.50;;;12.00;99.90;;;;;;6028703;23;20178;-70
2023/09/15 02:41:51;;;;;;;6.13;3.00;;;12.00;99.90;;;;;;6052400;23;20385;-71
2023/09/15 02:44:17;;;;;;;4.17;3.10;;;12.00;99.90;;;;;;6056444;23;20197;-71
2023/09/15 02:46:43;;;;;;;4.80;2.50;;;12.00;99.90;;;;;;6047038;23;20384;-71
2023/09/15 02:49:09;;;;;;;4.47;2.80;;;12.00;99.90;;;;;;6045552;23;20144;-71
2023/09/15 02:51:37;;;;;;;5.40;2.77;;;12.00;99.90;;;;;;6045683;23;20951;-71
2023/09/15 02:54:03;;;;;;;3.30;2.30;;;11.90;99.90;;;;;;6045148;23;20193;-71
2023/09/15 02:56:29;;;;;;;6.07;2.67;;;11.90;99.90;;;;;;6044820;23;20727;-71
2023/09/15 02:58:56;;;;;;;3.27;2.50;;;11.90;99.90;;;;;;6045136;23;20451;-70
2023/09/15 03:01:21;;;;;;;3.57;2.20;;;11.90;99.90;;;;;;6045985;23;20380;-70
2023/09/15 03:03:49;;;;;;;6.77;2.60;;;11.80;99.90;;;;;;6047808;23;20177;-69
2023/09/15 03:06:16;;;;;;;6.90;2.83;;;11.80;99.90;;;;;;6047322;23;20380;-70
2023/09/15 03:08:43;;;;;;;4.40;2.60;;;11.80;99.90;;;;;;6046630;23;20669;-69
2023/09/15 03:11:14;;;;;;;4.87;2.20;;;11.80;99.90;;;;;;6045882;23;20448;-70
2023/09/15 03:13:40;;;;;;;3.97;2.73;;;11.80;99.90;;;;;;6045388;23;20540;-70
2023/09/15 03:16:09;;;;;;;4.43;3.40;;;11.80;99.90;;;;;;6070746;23;20366;-71
2023/09/15 03:18:36;;;;;;;4.17;2.57;;;11.80;99.90;;;;;;6048540;23;20381;-70
2023/09/15 03:21:03;;;;;;;4.77;2.90;;;11.80;99.90;;;;;;6051612;23;20414;-71
2023/09/15 03:23:29;;;;;;;4.10;2.80;;;11.70;99.90;;;;;;6051885;23;20476;-72
2023/09/15 03:25:59;;;;;;;3.77;2.63;;;11.70;99.90;;;;;;6052063;23;20404;-71
2023/09/15 03:28:27;;;;;;;2.87;2.50;;;11.70;99.90;;;;;;6051711;23;20154;-71
2023/09/15 03:30:52;;;;;;;8.80;2.87;;;11.60;99.90;;;;;;6051143;23;20405;-71
2023/09/15 03:33:18;;;;;;;4.97;3.23;;;11.70;99.90;;;;;;6077781;23;20159;-71
2023/09/15 03:35:44;;;;;;;6.17;2.90;;;11.70;99.90;;;;;;6052914;23;20180;-72
2023/09/15 03:38:09;;;;;;;4.17;2.33;;;11.70;99.90;;;;;;6072625;23;20146;-70
2023/09/15 03:40:35;;;;;;;4.80;3.20;;;11.70;99.90;;;;;;6071775;23;20220;-70
2023/09/15 03:43:01;;;;;;;3.00;2.50;;;11.70;99.90;;;;;;6045746;23;20176;-70
2023/09/15 03:45:28;;;;;;;3.97;2.70;;;11.60;99.90;;;;;;6046557;23;20372;-70
2023/09/15 03:47:55;;;;;;;5.63;2.90;;;11.60;99.90;;;;;;6046742;23;20453;-70
2023/09/15 03:50:21;;;;;;;5.83;3.60;;;11.60;99.90;;;;;;6022615;23;20421;-70
2023/09/15 03:52:47;;;;;;;5.50;3.60;;;11.60;99.90;;;;;;6046516;23;20464;-72
2023/09/15 03:55:13;;;;;;;5.53;2.90;;;11.60;99.90;;;;;;6046739;23;20419;-70
2023/09/15 03:57:39;;;;;;;5.33;2.80;;;11.60;99.90;;;;;;6046307;23;20180;-71
2023/09/15 04:00:15;;;;;;;3.73;3.30;;;11.50;99.90;;;;;;6045553;23;20380;-71
2023/09/15 04:02:41;;;;;;;7.30;2.90;;;11.60;99.90;;;;;;6050095;23;20388;-71
2023/09/15 04:05:07;;;;;;;6.50;3.50;;;11.50;99.90;;;;;;6073973;23;20688;-70
2023/09/15 04:07:33;;;;;;;6.90;3.77;;;11.50;99.90;;;;;;6076111;23;20166;-71
2023/09/15 04:09:58;;;;;;;4.17;2.60;;;11.50;99.90;;;;;;6077300;23;20378;-71
2023/09/15 04:12:24;;;;;;;4.00;2.83;;;11.50;99.90;;;;;;6049615;23;20256;-71
2023/09/15 04:14:49;;;;;;;6.33;2.60;;;11.50;99.90;;;;;;6075618;23;20256;-71
2023/09/15 04:17:15;;;;;;;4.33;2.70;;;11.50;99.90;;;;;;6049776;23;20172;-70
2023/09/15 04:19:40;;;;;;;7.60;3.00;;;11.50;99.90;;;;;;6026494;23;20177;-72
2023/09/15 04:22:06;;;;;;;4.47;2.60;;;11.40;99.90;;;;;;6075929;23;20202;-71
2023/09/15 04:24:32;;;;;;;5.33;3.20;;;11.50;99.90;;;;;;6049687;23;20176;-71
2023/09/15 04:26:57;;;;;;;7.83;3.30;;;11.50;99.90;;;;;;6076954;23;20143;-72
2023/09/15 04:29:24;;;;;;;6.07;2.60;;;11.50;99.90;;;;;;6050326;23;20448;-71
2023/09/15 04:31:49;;;;;;;4.30;2.80;;;11.50;99.90;;;;;;6028540;23;20496;-71
2023/09/15 04:34:15;;;;;;;4.70;3.03;;;11.40;99.90;;;;;;6054351;23;20190;-71
2023/09/15 04:36:42;;;;;;;4.20;2.80;;;11.40;99.90;;;;;;6052235;23;20160;-72
2023/09/15 04:39:08;;;;;;;4.20;3.10;;;11.40;99.90;;;;;;6052354;23;20447;-71
2023/09/15 04:41:34;;;;;;;6.03;3.00;;;11.40;99.90;;;;;;6050545;23;20639;-72
2023/09/15 04:43:59;;;;;;;3.47;2.97;;;11.40;99.90;;;;;;6051749;23;20435;-72
2023/09/15 04:46:25;;;;;;;4.80;3.20;;;11.40;99.90;;;;;;6052723;23;20147;-72
2023/09/15 04:48:51;;;;;;;5.00;2.70;;;11.40;99.90;;;;;;6053191;23;20157;-71
2023/09/15 04:51:17;;;;;;;6.10;3.27;;;11.30;99.90;;;;;;6052577;23;20234;-72
2023/09/15 04:53:42;;;;;;;5.50;2.97;;;11.30;99.90;;;;;;6052006;23;20238;-72
2023/09/15 04:56:08;;;;;;;9.03;3.70;;;11.30;99.90;;;;;;6078210;23;20139;-72
2023/09/15 04:58:34;;;;;;;5.30;2.67;;;11.30;99.90;;;;;;6056240;23;20258;-73
2023/09/15 05:01:00;;;;;;;7.47;3.27;;;11.30;99.90;;;;;;6081289;23;20377;-71
2023/09/15 05:03:27;;;;;;;8.83;3.77;;;11.40;99.90;;;;;;6055754;23;20177;-71
2023/09/15 05:05:53;;;;;;;5.00;2.97;;;11.40;99.90;;;;;;6054439;23;20529;-72
2023/09/15 05:08:20;;;;;;;4.87;2.70;;;11.40;99.90;;;;;;6032337;23;20161;-72
2023/09/15 05:10:47;;;;;;;7.67;3.17;;;11.40;99.90;;;;;;6055282;23;20419;-72
2023/09/15 05:13:13;;;;;;;3.93;2.83;;;11.40;99.90;;;;;;6056435;23;20174;-72
2023/09/15 05:15:39;;;;;;;5.40;3.30;;;11.40;99.90;;;;;;6032013;23;20688;-72
2023/09/15 05:18:05;;;;;;;7.03;3.20;;;11.40;99.90;;;;;;6053921;23;20382;-72
2023/09/15 05:20:31;;;;;;;5.40;2.80;;;11.40;99.90;;;;;;6077401;23;20138;-71
2023/09/15 05:22:57;;;;;;;4.07;2.70;;;11.40;99.90;;;;;;6055260;23;20409;-72
2023/09/15 05:25:22;;;;;;;8.00;3.13;;;11.40;99.90;;;;;;6078149;23;20138;-72
2023/09/15 05:27:49;;;;;;;6.80;3.40;;;11.40;99.90;;;;;;6055188;23;20149;-71
2023/09/15 05:30:15;;;;;;;6.30;3.53;;;11.40;99.90;;;;;;6085998;23;20680;-73
2023/09/15 05:32:42;;;;;;;4.23;3.00;;;11.50;99.90;;;;;;6056283;23;20877;-72
2023/09/15 05:35:10;;;;;;;5.57;3.10;;;11.50;99.90;;;;;;6079155;23;20389;-72
2023/09/15 05:37:36;;;;;;;7.10;3.47;;;11.50;99.90;;;;;;6056100;23;20157;-74
2023/09/15 05:40:02;;;;;;;5.30;3.70;;;11.60;99.90;;;;;;6031706;23;20677;-72
2023/09/15 05:42:28;;;;;;;4.23;3.20;;;11.60;99.90;;;;;;6057035;23;20401;-73
2023/09/15 05:44:54;;;;;;;5.23;2.83;;;11.60;99.90;;;;;;6081023;23;20421;-73
2023/09/15 05:47:23;;;;;;;5.70;3.00;;;11.70;99.90;;;;;;6080952;23;20143;-74
2023/09/15 05:49:48;;;;;;;5.20;3.20;;;11.70;99.90;;;;;;6081082;23;20664;-73
2023/09/15 05:52:15;;;;;;;5.37;2.87;;;11.80;99.90;;;;;;6079232;23;20424;-72
2023/09/15 05:54:41;;;;;;;5.63;3.50;;;11.80;99.90;;;;;;6080952;23;20228;-71
2023/09/15 05:57:07;;;;;;;5.17;2.70;;;11.80;99.90;;;;;;6080633;23;20367;-72
2023/09/15 05:59:33;;;;;;;6.03;3.07;;;11.90;99.90;;;;;;6056168;23;20148;-72
2023/09/15 06:01:58;;;;;;;4.00;2.87;;;11.90;99.90;;;;;;6086067;23;20368;-72
2023/09/15 06:04:24;;;;;;;3.77;2.50;;;12.00;99.90;;;;;;6081693;23;20551;-71
2023/09/15 06:06:50;;;;;;;5.77;3.60;;;12.00;99.90;;;;;;6081355;23;20147;-72
2023/09/15 06:09:15;;;;;;;6.80;4.10;;;12.10;99.90;;;;;;6079777;23;20144;-72
2023/09/15 06:11:41;;;;;;;6.50;3.30;;;12.10;99.90;;;;;;6078492;23;20163;-71
2023/09/15 06:14:07;;;;;;;7.47;3.83;;;12.10;99.90;;;;;;6078768;23;20168;-73
2023/09/15 06:16:35;;;;;;;9.33;3.30;;;12.20;99.90;;;;;;6082016;23;20125;-74
2023/09/15 06:19:02;;;;;;;7.93;4.37;;;12.20;99.90;;;;;;6081065;23;20365;-72
2023/09/15 06:21:28;;;;;;;4.60;2.83;;;12.20;99.90;;;;;;6054923;23;20428;-73
2023/09/15 06:23:55;;;;;;;7.73;3.40;;;12.30;99.90;;;;;;6021425;23;20429;-73
2023/09/15 06:26:21;;;;;;;8.97;3.27;;;12.30;99.90;;;;;;6018242;23;20390;-73
2023/09/15 06:28:46;;;;;;;6.80;4.00;;;12.30;99.90;;;;;;6018337;23;20156;-72
2023/09/15 06:31:12;;;;;;;6.67;3.43;;;12.40;99.90;;;;;;5997881;23;20439;-72
2023/09/15 06:33:37;;;;;;;7.70;3.40;;;12.40;99.90;;;;;;6022691;23;20182;-72
2023/09/15 06:36:04;;;;;;;4.83;3.10;;;12.50;99.90;;;;;;6021721;23;20138;-75
2023/09/15 06:38:31;;;;;;;7.73;3.20;;;12.60;99.90;;;;;;6000502;23;20166;-75
2023/09/15 06:40:57;;;;;;;4.50;2.80;;;12.60;99.90;;;;;;6001220;23;20378;-75
2023/09/15 06:43:23;;;;;;;8.63;3.73;;;12.70;99.90;;;;;;6004804;23;20391;-77
2023/09/15 06:45:50;;;;;;;4.03;3.17;;;12.80;99.90;;;;;;5980346;23;20439;-74
2023/09/15 06:48:16;;;;;;;4.60;2.80;;;12.90;99.90;;;;;;5962145;23;20387;-75
2023/09/15 06:50:51;;;;;;;6.60;3.03;;;12.90;99.90;;;;;;6036508;23;20390;-81
2023/09/15 06:53:24;;;;;;;5.30;3.10;;;13.00;99.90;;;;;;5988476;23;20442;-76
2023/09/15 06:55:54;;;;;;;5.67;3.00;;;13.00;99.90;;;;;;6058876;23;20380;-76
2023/09/15 06:58:20;;;;;;;4.77;3.17;;;13.10;99.90;;;;;;6041873;23;20378;-75
2023/09/15 07:00:46;;;;;;;6.10;3.90;;;13.20;99.90;;;;;;6044368;23;20401;-75
2023/09/15 07:03:16;;;;;;;5.87;3.00;;;13.20;99.90;;;;;;6040872;23;20406;-77
2023/09/15 07:05:43;;;;;;;4.20;2.93;;;13.30;99.90;;;;;;6042641;23;20417;-77
2023/09/15 07:08:09;;;;;;;5.77;2.80;;;13.40;99.90;;;;;;6041703;23;20423;-78
2023/09/15 07:10:35;;;;;;;3.40;2.70;;;13.50;99.90;;;;;;6041451;23;20370;-78
2023/09/15 07:13:03;;;;;;;8.27;2.90;;;13.50;99.90;;;;;;6043189;23;20272;-76
2023/09/15 07:15:31;;;;;;;3.63;2.40;;;13.60;99.90;;;;;;6044411;23;20381;-76
2023/09/15 07:17:57;;;;;;;5.50;3.30;;;13.60;99.90;;;;;;6068197;23;20362;-77
2023/09/15 07:20:33;;;;;;;5.57;2.67;;;13.60;99.90;;;;;;6046340;23;20421;-77
2023/09/15 07:22:58;;;;;;;4.67;2.53;;;13.70;99.90;;;;;;6045772;23;20160;-76
2023/09/15 07:25:31;;;;;;;7.33;3.93;;;13.70;99.90;;;;;;6061728;23;20423;-76
2023/09/15 07:28:20;;;;;;;5.83;2.47;;;13.90;99.90;;;;;;6038969;23;20392;-78
2023/09/15 07:31:19;;;;;;;3.87;2.23;;;13.90;99.90;;;;;;6037378;23;20366;-77
2023/09/15 07:33:47;;;;;;;4.67;2.20;;;14.00;99.90;;;;;;6015044;23;20437;-75
2023/09/15 07:36:13;;;;;;;5.30;2.80;;;14.10;99.90;;;;;;6035053;23;20397;-75
2023/09/15 07:38:39;;;;;;;3.97;2.50;;;14.20;99.90;;;;;;6034053;23;20394;-75
2023/09/15 07:41:07;;;;;;;9.40;3.10;;;14.30;99.90;;;;;;6032903;23;20172;-75
2023/09/15 07:43:32;;;;;;;7.43;3.33;;;14.40;99.90;;;;;;6059755;23;20405;-74
2023/09/15 07:45:58;;;;;;;6.40;2.40;;;14.50;99.90;;;;;;6036899;23;20391;-77
2023/09/15 07:48:24;;;;;;;4.43;2.70;;;14.60;99.90;;;;;;6036730;23;20134;-77
2023/09/15 07:50:51;;;;;;;6.33;2.37;;;14.70;99.90;;;;;;6062931;23;20370;-77
2023/09/15 07:53:17;;;;;;;4.33;2.80;;;14.80;99.90;;;;;;6014160;23;20201;-75
2023/09/15 07:55:46;;;;;;;9.00;3.00;;;14.90;99.90;;;;;;6038144;23;20430;-76
2023/09/15 07:58:14;;;;;;;5.97;3.43;;;14.90;99.90;;;;;;6008499;23;20379;-75
2023/09/15 08:00:40;;;;;;;6.43;3.27;;;15.00;99.90;;;;;;5986161;23;20374;-77
2023/09/15 08:03:08;;;;;;;4.50;2.43;;;15.10;99.90;;;;;;6007815;23;20387;-76
2023/09/15 08:08:22;;;;;;;4.73;2.20;;;15.10;99.90;;;;;;6061118;23;20442;-73
2023/09/15 08:10:48;;;;;;;4.70;2.33;;;15.20;99.90;;;;;;6035387;23;20387;-75
2023/09/15 08:13:15;;;;;;;3.00;2.20;;;15.40;99.90;;;;;;6060793;23;20174;-74
2023/09/15 08:15:40;;;;;;;10.07;2.60;;;15.40;99.90;;;;;;6059489;23;20449;-76
2023/09/15 08:18:06;;;;;;;12.83;3.33;;;15.50;99.90;;;;;;6000945;24;20170;-75
2023/09/15 08:20:32;;;;;;;6.30;3.50;;;15.50;99.90;;;;;;6005174;23;20438;-77
2023/09/15 08:22:59;;;;;;;5.27;2.60;;;15.50;99.90;;;;;;6000999;24;20227;-76
2023/09/15 08:25:25;;;;;;;10.03;4.33;;;15.60;99.90;;;;;;6006226;24;20131;-75
2023/09/15 08:27:51;;;;;;;8.57;2.80;;;15.60;99.90;;;;;;6005530;23;20491;-77
2023/09/15 08:30:17;;;;;;;4.90;2.67;;;15.60;99.90;;;;;;5983499;23;20380;-76
2023/09/15 08:32:43;;;;;;;5.63;2.90;;;15.70;99.90;;;;;;6004661;23;20457;-72
2023/09/15 08:35:10;;;;;;;6.63;2.80;;;15.80;99.90;;;;;;5993898;23;20158;-77
2023/09/15 08:37:36;;;;;;;5.47;2.80;;;15.80;99.90;;;;;;6007462;24;20411;-75
2023/09/15 08:40:02;;;;;;;3.50;2.03;;;15.90;99.90;;;;;;5984514;23;20367;-75
2023/09/15 08:42:28;;;;;;;5.80;2.80;;;15.90;99.90;;;;;;6009485;23;20165;-76
2023/09/15 08:44:56;;;;;;;6.30;2.40;;;16.00;99.90;;;;;;6010662;23;20191;-76
2023/09/15 08:47:34;;;;;;;5.83;2.57;;;16.10;99.90;;;;;;6036480;23;20379;-78
2023/09/15 08:50:03;;;;;;;8.30;3.13;;;16.10;99.90;;;;;;5993495;23;20384;-78
2023/09/15 08:52:36;;;;;;;6.53;2.80;;;16.20;99.90;;;;;;6059044;23;20434;-79
2023/09/15 08:55:05;;;;;;;5.63;2.57;;;16.30;99.90;;;;;;6032103;23;20372;-76
2023/09/15 08:57:34;;;;;;;4.30;2.20;;;16.50;99.90;;;;;;5992666;23;20419;-78
2023/09/15 09:00:00;;;;;;;3.00;2.10;;;16.50;99.90;;;;;;5971514;24;20517;-76
2023/09/15 09:02:26;;;;;;;4.70;2.37;;;16.60;99.90;;;;;;5974145;24;20369;-76
2023/09/15 09:05:18;;;;;;;6.40;2.33;;;16.70;99.90;;;;;;5980294;24;20444;-77
2023/09/15 09:08:04;;;;;;;8.87;2.80;;;16.80;99.90;;;;;;5980694;23;20517;-77
2023/09/15 09:10:30;;;;;;;3.20;2.17;;;17.00;99.90;;;;;;5956178;24;20393;-76
2023/09/15 09:15:32;;;;;;;4.10;2.60;;;17.10;99.40;;;;;;6124234;23;20148;-78
2023/09/15 09:17:58;;;;;;;6.13;2.83;;;17.20;99.10;;;;;;6072581;23;20654;-76
2023/09/15 09:20:26;;;;;;;4.40;2.70;;;17.30;98.60;;;;;;6095561;23;20417;-75
2023/09/15 09:22:54;;;;;;;4.07;2.00;;;17.40;97.30;;;;;;6072242;23;20167;-77
2023/09/15 09:25:33;;;;;;;3.60;2.13;;;17.50;97.20;;;;;;6039842;23;20392;-77
2023/09/15 09:28:03;;;;;;;4.80;2.77;;;17.60;96.50;;;;;;6037338;23;20436;-76
2023/09/15 09:30:29;;;;;;;5.03;3.00;;;17.70;95.00;;;;;;6043116;23;20494;-76
2023/09/15 09:35:29;;;;;;;4.47;2.70;;;17.90;92.70;;;;;;6064001;23;20534;-77
2023/09/15 09:37:56;;;;;;;6.13;2.40;;;17.90;92.40;;;;;;6014697;23;20403;-76
2023/09/15 09:40:23;;;;;;;4.70;2.67;;;17.90;92.20;;;;;;6063553;23;20139;-76
2023/09/15 09:42:49;;;;;;;4.60;2.50;;;18.00;91.10;;;;;;6034261;23;20396;-74
2023/09/15 09:45:15;;;;;;;4.70;2.40;;;18.10;89.80;;;;;;6059343;23;20366;-77
2023/09/15 09:47:42;;;;;;;4.93;2.77;;;18.10;90.00;;;;;;6033032;23;20386;-74
2023/09/15 09:50:10;;;;;;;3.43;2.13;;;18.20;90.20;;;;;;6034515;23;20448;-73
2023/09/15 09:52:40;;;;;;;6.30;3.27;;;18.30;89.90;;;;;;6060214;23;20429;-75
2023/09/15 09:55:08;;;;;;;7.43;3.03;;;18.40;90.00;;;;;;6034445;23;20426;-76
2023/09/15 09:57:38;;;;;;;4.00;2.60;;;18.50;87.60;;;;;;6013386;23;20384;-76
2023/09/15 10:00:04;;;;;;;6.67;3.40;;;18.60;85.60;;;;;;6033585;23;20386;-75
2023/09/15 10:02:31;;;;;;;4.57;2.50;;;18.70;84.50;;;;;;6056013;23;20363;-73
2023/09/15 10:04:56;;;;;;;4.53;2.73;;;18.80;83.60;;;;;;6057417;23;20413;-74
2023/09/15 10:07:22;;;;;;;5.50;2.83;;;18.90;83.30;;;;;;6033878;23;20358;-74
2023/09/15 10:09:49;;;;;;;3.07;2.00;;;18.90;82.50;;;;;;6031760;23;20161;-74
2023/09/15 10:12:15;;;;;;;3.87;2.70;;;19.00;82.10;;;;;;6007246;23;20474;-72
2023/09/15 10:14:42;;;;;;;3.50;2.33;;;19.00;80.40;;;;;;6057801;23;20409;-74
2023/09/15 10:17:11;;;;;;;6.70;2.40;;;19.20;80.00;;;;;;6013776;23;20402;-73
2023/09/15 10:19:36;;;;;;;5.93;3.17;;;19.30;79.20;;;;;;6059600;23;20382;-72
2023/09/15 10:22:05;;;;;;;3.73;2.80;;;19.40;77.00;;;;;;6060298;23;20370;-74
2023/09/15 10:24:31;;;;;;;4.97;1.97;;;19.50;76.50;;;;;;5953030;24;20401;-73
2023/09/15 10:26:57;;;;;;;3.47;2.87;;;19.50;76.10;;;;;;5975847;24;20381;-73
2023/09/15 10:29:30;;;;;;;3.80;2.73;;;19.60;75.10;;;;;;5952420;24;20389;-74
2023/09/15 10:31:59;;;;;;;4.20;2.20;;;19.70;74.30;;;;;;5973017;24;20452;-74
2023/09/15 10:34:25;;;;;;;3.63;2.87;;;19.70;73.70;;;;;;5946721;24;20432;-76
2023/09/15 10:36:52;;;;;;;4.27;2.40;;;19.90;72.90;;;;;;5926304;24;20385;-73
2023/09/15 10:39:18;;;;;;;3.00;2.53;;;19.90;71.40;;;;;;5926631;24;20381;-73
2023/09/15 10:41:44;;;;;;;4.40;3.00;;;19.90;71.00;;;;;;5949076;24;20428;-74
2023/09/15 10:44:11;;;;;;;7.00;3.80;;;20.00;69.10;;;;;;5948856;23;20164;-73
2023/09/15 10:46:42;;;;;;;4.53;2.87;;;20.00;68.50;;;;;;5971143;24;20373;-74
2023/09/15 10:49:20;;;;;;;3.80;2.60;;;20.10;68.50;;;;;;5946424;24;20400;-74
2023/09/15 10:52:00;;;;;;;3.10;2.33;;;20.10;68.20;;;;;;5943413;24;20413;-73
2023/09/15 10:54:34;;;;;;;3.90;2.93;;;20.10;68.70;;;;;;5949044;24;20447;-75
2023/09/15 10:57:01;;;;;;;3.30;2.60;;;20.20;66.80;;;;;;5974572;24;20419;-73
2023/09/15 10:59:29;;;;;;;3.90;2.43;;;20.20;66.70;;;;;;5999487;24;20363;-74
2023/09/15 11:01:57;;;;;;;5.50;3.43;;;20.20;65.20;;;;;;6000353;24;20734;-75
2023/09/15 11:04:25;;;;;;;3.60;2.10;;;20.20;64.60;;;;;;6000838;24;20920;-73
2023/09/15 11:06:52;;;;;;;3.77;2.60;;;20.30;66.00;;;;;;5975118;24;20391;-75
2023/09/15 11:09:19;;;;;;;2.60;2.37;;;20.40;65.00;;;;;;6022875;23;20392;-76
2023/09/15 11:11:50;;;;;;;2.67;2.17;;;20.40;64.90;;;;;;6002108;24;20453;-76
2023/09/15 11:14:21;;;;;;;4.23;2.30;;;20.40;63.70;;;;;;6004069;24;20400;-76
2023/09/15 11:16:50;;;;;;;2.80;2.27;;;20.50;63.70;;;;;;5957312;24;20388;-75
2023/09/15 11:19:17;;;;;;;4.17;2.03;;;20.50;63.20;;;;;;5999586;24;20368;-74
2023/09/15 11:21:45;;;;;;;3.83;2.17;;;20.60;62.50;;;;;;6006903;23;20376;-74
2023/09/15 11:24:15;;;;;;;5.47;2.63;;;20.60;62.80;;;;;;6057163;23;20477;-75
2023/09/15 11:26:45;;;;;;;3.13;1.80;;;20.70;63.40;;;;;;5990146;23;20383;-74
2023/09/15 11:29:16;;;;;;;3.80;2.33;;;20.70;63.80;;;;;;6059339;23;20397;-75
2023/09/15 11:31:43;;;;;;;3.77;2.30;;;20.80;63.40;;;;;;6037083;23;20421;-74
2023/09/15 11:34:09;;;;;;;4.23;2.07;;;20.90;61.70;;;;;;6058368;23;20390;-74
2023/09/15 11:36:35;;;;;;;2.77;1.43;;;20.90;60.80;;;;;;6060293;23;20375;-74
2023/09/15 11:39:15;;;;;;;1.63;1.47;;;20.90;60.70;;;;;;6014665;23;20134;-76
2023/09/15 11:41:53;;;;;;;3.77;2.57;;;21.00;62.30;;;;;;6035930;23;20382;-75
2023/09/15 11:44:29;;;;;;;3.07;1.90;;;21.00;60.10;;;;;;5951590;24;20546;-74
2023/09/15 11:46:56;;;;;;;3.83;2.20;;;21.00;60.40;;;;;;5973242;24;20517;-73
2023/09/15 11:49:23;;;;;;;2.83;2.37;;;21.00;59.80;;;;;;5946913;24;20431;-72
2023/09/15 11:51:50;;;;;;;3.63;2.70;;;21.10;59.70;;;;;;5950462;24;20496;-74
2023/09/15 11:54:16;;;;;;;3.53;2.10;;;21.10;59.40;;;;;;5948145;24;20409;-73
2023/09/15 11:56:43;;;;;;;4.00;2.10;;;21.10;59.10;;;;;;5975103;24;20423;-75
2023/09/15 11:59:10;;;;;;;3.43;1.53;;;21.10;58.30;;;;;;5975432;24;20382;-75
2023/09/15 12:01:37;;;;;;;2.33;1.80;;;21.10;56.00;;;;;;5952329;24;20545;-74
2023/09/15 12:04:03;;;;;;;2.87;2.17;;;21.20;56.30;;;;;;5951269;24;20409;-75
2023/09/15 12:06:31;;;;;;;3.47;1.87;;;21.20;56.60;;;;;;5974746;24;20373;-74
2023/09/15 12:08:57;;;;;;;3.40;1.60;;;21.20;57.10;;;;;;5975302;24;20768;-75
2023/09/15 12:11:24;;;;;;;4.40;2.40;;;21.20;56.90;;;;;;5974492;24;20419;-75
2023/09/15 12:13:52;;;;;;;2.97;2.10;;;21.20;57.00;;;;;;5952952;24;20394;-74
2023/09/15 12:16:28;;;;;;;2.50;1.60;;;21.20;56.80;;;;;;6032397;23;20379;-76
2023/09/15 12:18:55;;;;;;;2.70;1.73;;;21.30;56.30;;;;;;6085793;23;20715;-74
2023/09/15 12:21:24;;;;;;;2.53;2.10;;;21.40;55.80;;;;;;5991430;23;20394;-75
2023/09/15 12:23:51;;;;;;;2.40;1.70;;;21.40;55.70;;;;;;6037538;23;20510;-75
2023/09/15 12:26:18;;;;;;;4.80;2.07;;;21.40;55.80;;;;;;6034999;23;20381;-75
2023/09/15 12:28:45;;;;;;;2.30;1.93;;;21.30;55.80;;;;;;6059420;23;20373;-75
2023/09/15 12:31:18;;;;;;;3.60;2.23;;;21.40;56.10;;;;;;6064212;23;20413;-75
2023/09/15 12:33:58;;;;;;;2.87;2.00;;;21.50;55.30;;;;;;6018551;23;20405;-75
2023/09/15 12:36:25;;;;;;;5.30;2.30;;;21.60;54.90;;;;;;6045203;23;20365;-77
2023/09/15 12:38:53;;;;;;;2.60;2.00;;;21.60;54.90;;;;;;6019099;23;20354;-75
2023/09/15 12:41:20;;;;;;;2.10;1.90;;;21.60;54.80;;;;;;6066720;23;20370;-76
2023/09/15 12:43:45;;;;;;;2.20;1.50;;;21.60;54.80;;;;;;6065648;23;20437;-75
2023/09/15 12:46:11;;;;;;;2.60;2.10;;;21.50;55.20;;;;;;6065541;23;20145;-75
2023/09/15 12:48:37;;;;;;;4.40;2.20;;;21.50;55.30;;;;;;6088859;23;20141;-73
2023/09/15 12:51:04;;;;;;;2.80;1.90;;;21.60;55.40;;;;;;6088536;23;20376;-75
2023/09/15 12:53:30;;;;;;;2.13;1.67;;;21.70;55.10;;;;;;6006597;23;20265;-75
2023/09/15 12:55:56;;;;;;;1.80;1.50;;;21.70;55.40;;;;;;6007981;23;20383;-75